createdAt,value
2023-03-16T00:01:50.317Z,100140.41
2023-03-16T00:04:54.254Z,100146.56
2023-03-16T00:07:54.283Z,100148.44
2023-03-16T00:10:54.348Z,100140.19
2023-03-16T00:13:54.252Z,100158.87
2023-03-16T00:16:54.267Z,100164.03
2023-03-16T00:19:54.322Z,100159.72
2023-03-16T00:22:54.262Z,100171.19
2023-03-16T00:25:54.313Z,100158.94
2023-03-16T00:28:54.297Z,100166.84
2023-03-16T00:31:54.319Z,100165.94
2023-03-16T00:34:54.292Z,100163.50
2023-03-16T00:37:54.340Z,100165.28
2023-03-16T00:40:54.262Z,100170.44
2023-03-16T00:43:55.235Z,100174.84
2023-03-16T00:46:55.303Z,100170.66
2023-03-16T00:49:57.290Z,100181.19
2023-03-16T00:53:00.248Z,100162.78
2023-03-16T00:56:00.280Z,100184.03
2023-03-16T00:59:04.261Z,100176.41
2023-03-16T01:02:04.285Z,100179.84
2023-03-16T01:05:05.297Z,100178.19
2023-03-16T01:08:06.264Z,100171.09
2023-03-16T01:11:06.262Z,100184.88
2023-03-16T01:14:06.242Z,100185.59
2023-03-16T01:17:07.316Z,100195.06
2023-03-16T01:20:07.299Z,100190.69
2023-03-16T01:23:07.262Z,100191.50
2023-03-16T01:26:07.285Z,100206.19
2023-03-16T01:29:07.266Z,100213.00
2023-03-16T01:32:07.254Z,100207.03
2023-03-16T01:35:07.252Z,100196.22
2023-03-16T01:38:07.297Z,100213.31
2023-03-16T01:41:08.248Z,100225.91
2023-03-16T01:44:08.265Z,100217.25
2023-03-16T01:47:08.272Z,100203.09
2023-03-16T01:50:10.270Z,100219.97
2023-03-16T01:53:10.294Z,100226.03
2023-03-16T01:56:10.274Z,100232.06
2023-03-16T01:59:11.255Z,100239.75
2023-03-16T02:02:11.281Z,100228.50
2023-03-16T02:05:30.289Z,100226.66
2023-03-16T02:08:30.245Z,100236.19
2023-03-16T02:11:30.259Z,100243.06
2023-03-16T02:14:31.278Z,100213.50
2023-03-16T02:17:36.257Z,100210.22
2023-03-16T02:21:23.266Z,100236.25
2023-03-16T02:24:23.287Z,100231.13
2023-03-16T02:27:30.233Z,100232.78
2023-03-16T02:30:32.262Z,100232.91
2023-03-16T02:33:33.270Z,100243.25
2023-03-16T02:36:27.260Z,100230.50
2023-03-16T02:39:13.291Z,100219.72
2023-03-16T02:42:14.277Z,100222.19
2023-03-16T02:45:14.273Z,100190.31
2023-03-16T02:48:16.259Z,100224.09
2023-03-16T02:51:16.461Z,100229.50
2023-03-16T02:54:16.222Z,100207.06
2023-03-16T02:57:16.285Z,100235.69
2023-03-16T03:00:25.276Z,100242.78
2023-03-16T03:03:25.345Z,100242.91
2023-03-16T03:06:25.248Z,100254.03
2023-03-16T03:09:25.285Z,100252.41
2023-03-16T03:12:25.276Z,100254.22
2023-03-16T03:15:25.293Z,100253.87
2023-03-16T03:18:26.226Z,100266.44
2023-03-16T03:21:26.273Z,100269.88
2023-03-16T03:24:26.266Z,100251.38
2023-03-16T03:27:26.310Z,100275.91
2023-03-16T03:30:34.242Z,100283.69
2023-03-16T03:33:34.233Z,100274.56
2023-03-16T03:36:34.306Z,100300.19
2023-03-16T03:39:34.273Z,100301.16
2023-03-16T03:42:34.255Z,100308.09
2023-03-16T03:45:34.255Z,100297.28
2023-03-16T03:48:34.284Z,100313.22
2023-03-16T03:51:34.244Z,100322.72
2023-03-16T03:54:34.255Z,100332.28
2023-03-16T03:57:35.251Z,100319.34
2023-03-16T04:00:28.525Z,100323.72
2023-03-16T04:03:08.566Z,100324.66
2023-03-16T04:05:55.234Z,100330.66
2023-03-16T04:08:41.288Z,100336.78
2023-03-16T04:11:41.262Z,100337.72
2023-03-16T04:14:41.237Z,100323.31
2023-03-16T04:17:41.234Z,100319.44
2023-03-16T04:20:41.290Z,100342.06
2023-03-16T04:23:41.291Z,100347.41
2023-03-16T04:26:41.236Z,100352.56
2023-03-16T04:29:41.237Z,100350.09
2023-03-16T04:32:41.259Z,100350.22
2023-03-16T04:35:42.294Z,100352.81
2023-03-16T04:38:43.255Z,100358.00
2023-03-16T04:41:43.245Z,100361.47
2023-03-16T04:44:50.233Z,100372.69
2023-03-16T04:47:50.242Z,100366.63
2023-03-16T04:50:50.265Z,100374.19
2023-03-16T04:53:51.246Z,100378.56
2023-03-16T04:56:52.264Z,100393.16
2023-03-16T04:59:52.285Z,100399.13
2023-03-16T05:02:52.232Z,100406.91
2023-03-16T05:05:52.321Z,100400.81
2023-03-16T05:08:53.239Z,100413.63
2023-03-16T05:11:53.249Z,100417.91
2023-03-16T05:14:53.267Z,100422.88
2023-03-16T05:17:54.257Z,100421.91
2023-03-16T05:20:55.239Z,100431.31
2023-03-16T05:23:57.274Z,100433.78
2023-03-16T05:26:57.278Z,100415.31
2023-03-16T05:29:57.233Z,100422.09
2023-03-16T05:32:58.341Z,100443.97
2023-03-16T05:35:58.325Z,100431.84
2023-03-16T05:38:59.298Z,100435.25
2023-03-16T05:42:01.250Z,100448.09
2023-03-16T05:45:02.284Z,100445.47
2023-03-16T05:48:02.278Z,100449.69
2023-03-16T05:51:04.246Z,100461.56
2023-03-16T05:54:04.265Z,100461.41
2023-03-16T05:57:05.305Z,100457.87
2023-03-16T06:00:05.248Z,100469.41
2023-03-16T06:03:23.277Z,100482.62
2023-03-16T06:06:24.235Z,100480.66
2023-03-16T06:09:24.258Z,100484.47
2023-03-16T06:12:25.386Z,100479.84
2023-03-16T06:15:26.219Z,100444.28
2023-03-16T06:18:37.355Z,100487.84
2023-03-16T06:21:49.319Z,100449.25
2023-03-16T06:25:01.067Z,100445.22
2023-03-16T06:28:12.917Z,100489.56
2023-03-16T06:31:27.362Z,100479.94
2023-03-16T06:34:31.674Z,100479.94
2023-03-16T06:37:35.377Z,100479.56
2023-03-16T06:40:36.789Z,100509.72
2023-03-16T06:43:36.376Z,100524.50
2023-03-16T06:46:58.624Z,100529.00
2023-03-16T06:53:02.577Z,100515.97
2023-03-16T06:56:10.440Z,100519.63
2023-03-16T06:59:10.321Z,100546.47
2023-03-16T07:02:10.426Z,100538.41
2023-03-16T07:05:22.764Z,100546.53
2023-03-16T07:08:40.352Z,100551.47
2023-03-16T07:11:53.712Z,100546.63
2023-03-16T07:14:59.153Z,100570.50
2023-03-16T07:18:04.284Z,100554.03
2023-03-16T07:21:10.348Z,100551.97
2023-03-16T07:24:13.374Z,100575.87
2023-03-16T07:27:13.227Z,100569.81
2023-03-16T07:30:14.391Z,100564.06
2023-03-16T07:33:18.360Z,100582.31
2023-03-16T07:36:18.323Z,100589.91
2023-03-16T07:39:23.974Z,100584.25
2023-03-16T07:42:53.312Z,100596.31
2023-03-16T07:45:55.308Z,100601.88
2023-03-16T07:48:56.276Z,100605.47
2023-03-16T07:51:59.234Z,100605.19
2023-03-16T07:55:00.233Z,100608.28
2023-03-16T07:58:08.369Z,100614.34
2023-03-16T08:01:15.701Z,100555.50
2023-03-16T08:04:19.284Z,100616.59
2023-03-16T08:07:19.260Z,100538.94
2023-03-16T08:10:19.300Z,100621.66
2023-03-16T08:13:20.250Z,100620.44
2023-03-16T08:16:22.926Z,100616.13
2023-03-16T08:19:24.296Z,100637.47
2023-03-16T08:22:25.239Z,100630.84
2023-03-16T08:25:26.253Z,100642.50
2023-03-16T08:28:28.305Z,100636.53
2023-03-16T08:31:32.326Z,100624.94
2023-03-16T08:34:33.342Z,100630.94
2023-03-16T08:37:34.371Z,100629.38
2023-03-16T08:40:36.282Z,100643.28
2023-03-16T08:43:36.253Z,100598.28
2023-03-16T08:46:36.314Z,100642.28
2023-03-16T08:49:31.518Z,100649.50
2023-03-16T08:52:34.189Z,100652.44
2023-03-16T08:55:39.630Z,100633.28
2023-03-16T09:01:38.432Z,100637.03
2023-03-16T09:04:39.313Z,100666.44
2023-03-16T09:07:45.534Z,100649.25
2023-03-16T09:11:47.071Z,100656.66
2023-03-16T09:14:54.297Z,100685.94
2023-03-16T09:17:58.577Z,100669.66
2023-03-16T09:20:59.988Z,100673.69
2023-03-16T09:24:01.260Z,100677.44
2023-03-16T09:27:03.496Z,100679.88
2023-03-16T09:30:07.267Z,100684.22
2023-03-16T09:33:07.337Z,100684.50
2023-03-16T09:36:14.114Z,100680.97
2023-03-16T09:39:15.292Z,100682.44
2023-03-16T09:42:31.501Z,100696.47
2023-03-16T09:45:48.357Z,100702.19
2023-03-16T09:48:49.265Z,100693.56
2023-03-16T09:51:56.248Z,100696.03
2023-03-16T09:55:21.502Z,100674.37
2023-03-16T09:58:32.649Z,100640.09
2023-03-16T10:02:21.306Z,100663.75
2023-03-16T10:05:24.420Z,100707.63
2023-03-16T10:08:38.694Z,100656.53
2023-03-16T10:11:59.034Z,100708.72
2023-03-16T10:15:23.264Z,100671.22
2023-03-16T10:18:30.245Z,100670.38
2023-03-16T10:21:33.277Z,100708.44
2023-03-16T10:24:58.309Z,100705.03
2023-03-16T10:27:59.360Z,100717.16
2023-03-16T10:31:04.290Z,100710.69
2023-03-16T10:34:10.278Z,100726.16
2023-03-16T10:37:11.358Z,100706.41
2023-03-16T10:40:11.257Z,100719.06
2023-03-16T10:43:11.265Z,100719.44
2023-03-16T10:46:18.390Z,100719.81
2023-03-16T10:49:45.119Z,100695.59
2023-03-16T10:52:59.320Z,100717.31
2023-03-16T10:56:23.167Z,100713.44
2023-03-16T10:59:42.380Z,100718.53
2023-03-16T11:02:47.358Z,100729.09
2023-03-16T11:05:48.298Z,100714.75
2023-03-16T11:09:43.953Z,100722.44
2023-03-16T11:12:28.354Z,100717.00
2023-03-16T11:15:28.383Z,100725.06
2023-03-16T11:18:46.285Z,100730.59
2023-03-16T11:22:13.379Z,100727.72
2023-03-16T11:25:17.463Z,100730.47
2023-03-16T11:28:20.269Z,100735.44
2023-03-16T11:31:25.406Z,100728.00
2023-03-16T11:34:46.237Z,100742.88
2023-03-16T11:38:01.340Z,100731.13
2023-03-16T11:41:28.657Z,100737.22
2023-03-16T11:44:43.319Z,100734.47
2023-03-16T11:48:10.063Z,100721.87
2023-03-16T11:51:31.322Z,100722.88
2023-03-16T11:55:08.311Z,100732.06
2023-03-16T11:58:38.293Z,100725.97
2023-03-16T12:02:15.494Z,100727.66
2023-03-16T12:05:44.950Z,100725.28
2023-03-16T12:08:54.318Z,100722.88
2023-03-16T12:12:12.288Z,100711.22
2023-03-16T12:15:31.846Z,100736.75
2023-03-16T12:18:36.311Z,100706.97
2023-03-16T12:21:39.304Z,100736.19
2023-03-16T12:24:43.312Z,100734.63
2023-03-16T12:27:49.331Z,100723.34
2023-03-16T12:30:58.271Z,100734.81
2023-03-16T12:34:03.322Z,100725.72
2023-03-16T12:37:16.329Z,100731.81
2023-03-16T12:40:32.958Z,100740.56
2023-03-16T12:44:07.332Z,100740.34
2023-03-16T12:50:37.281Z,100730.28
2023-03-16T12:53:41.284Z,100738.06
2023-03-16T12:56:58.231Z,100734.91
2023-03-16T13:00:00.309Z,100742.19
2023-03-16T13:03:06.312Z,100724.34
2023-03-16T13:06:10.279Z,100731.97
2023-03-16T13:09:11.324Z,100748.16
2023-03-16T13:12:14.466Z,100734.25
2023-03-16T13:15:14.298Z,100747.03
2023-03-16T13:18:19.324Z,100741.34
2023-03-16T13:21:52.278Z,100744.38
2023-03-16T13:24:53.256Z,100764.59
2023-03-16T13:27:47.323Z,100752.00
2023-03-16T13:30:29.765Z,100761.31
2023-03-16T13:33:27.331Z,100759.44
2023-03-16T13:36:07.460Z,100761.94
2023-03-16T13:39:17.312Z,100758.78
2023-03-16T13:42:30.330Z,100770.50
2023-03-16T13:45:33.648Z,100772.25
2023-03-16T13:48:34.290Z,100776.09
2023-03-16T13:51:35.280Z,100773.78
2023-03-16T13:54:43.309Z,100775.47
2023-03-16T13:57:46.293Z,100741.94
2023-03-16T14:00:49.309Z,100774.25
2023-03-16T14:03:52.276Z,100766.75
2023-03-16T14:06:52.301Z,100784.50
2023-03-16T14:09:53.292Z,100765.81
2023-03-16T14:12:53.287Z,100765.06
2023-03-16T14:15:53.393Z,100780.03
2023-03-16T14:19:31.329Z,100774.31
2023-03-16T14:22:37.301Z,100787.94
2023-03-16T14:25:39.325Z,100776.06
2023-03-16T14:28:45.291Z,100785.66
2023-03-16T14:31:50.376Z,100799.06
2023-03-16T14:34:52.327Z,100794.44
2023-03-16T14:37:52.306Z,100778.19
2023-03-16T14:40:52.336Z,100776.94
2023-03-16T14:43:58.286Z,100811.13
2023-03-16T14:46:58.284Z,100809.50
2023-03-16T14:49:58.316Z,100783.00
2023-03-16T14:52:58.330Z,100785.25
2023-03-16T14:55:58.318Z,100811.09
2023-03-16T14:58:58.306Z,100830.25
2023-03-16T15:01:58.423Z,100820.94
2023-03-16T15:04:58.290Z,100815.50
2023-03-16T15:07:59.295Z,100815.22
2023-03-16T15:10:59.361Z,100829.28
2023-03-16T15:14:10.331Z,100836.87
2023-03-16T15:17:11.351Z,100838.03
2023-03-16T15:20:11.297Z,100835.72
2023-03-16T15:23:11.308Z,100844.31
2023-03-16T15:26:14.275Z,100834.91
2023-03-16T15:29:14.298Z,100825.50
2023-03-16T15:32:14.292Z,100850.09
2023-03-16T15:35:14.251Z,100850.78
2023-03-16T15:38:21.259Z,100846.16
2023-03-16T15:41:24.864Z,100849.06
2023-03-16T15:44:26.344Z,100830.97
2023-03-16T15:47:26.325Z,100864.34
2023-03-16T15:50:27.560Z,100863.53
2023-03-16T15:53:45.288Z,100852.22
2023-03-16T15:56:54.622Z,100875.38
2023-03-16T15:59:54.254Z,100860.59
2023-03-16T16:02:54.293Z,100880.28
2023-03-16T16:05:54.259Z,100888.31
2023-03-16T16:08:54.311Z,100868.53
2023-03-16T16:11:55.320Z,100897.75
2023-03-16T16:14:55.283Z,100875.50
2023-03-16T16:18:19.327Z,100905.31
2023-03-16T16:21:17.262Z,100905.44
2023-03-16T16:24:17.281Z,100884.87
2023-03-16T16:27:17.295Z,100887.50
2023-03-16T16:30:29.316Z,100918.94
2023-03-16T16:33:45.304Z,100927.22
2023-03-16T16:36:45.301Z,100936.09
2023-03-16T16:39:45.318Z,100927.16
2023-03-16T16:42:45.282Z,100933.84
2023-03-16T16:45:45.348Z,100934.16
2023-03-16T16:48:51.325Z,100949.44
2023-03-16T16:51:51.281Z,100927.75
2023-03-16T16:54:51.325Z,100933.72
2023-03-16T16:57:51.286Z,100963.09
2023-03-16T17:00:51.324Z,100961.16
2023-03-16T17:03:51.314Z,100972.78
2023-03-16T17:06:52.334Z,100975.81
2023-03-16T17:09:52.286Z,100975.47
2023-03-16T17:12:52.251Z,100979.37
2023-03-16T17:15:53.284Z,100966.69
2023-03-16T17:18:53.257Z,100969.53
2023-03-16T17:21:53.323Z,100986.53
2023-03-16T17:24:54.281Z,100997.38
2023-03-16T17:27:54.339Z,101005.63
2023-03-16T17:30:55.360Z,100999.69
2023-03-16T17:33:55.351Z,100993.16
2023-03-16T17:36:55.328Z,100999.66
2023-03-16T17:39:57.380Z,101006.50
2023-03-16T17:42:58.319Z,100986.53
2023-03-16T17:45:59.324Z,101012.25
2023-03-16T17:48:59.314Z,101019.56
2023-03-16T17:51:59.308Z,101025.09
2023-03-16T17:55:00.286Z,101027.34
2023-03-16T17:58:04.277Z,101031.97
2023-03-16T18:01:04.289Z,101035.56
2023-03-16T18:04:04.323Z,101041.00
2023-03-16T18:07:04.274Z,101036.87
2023-03-16T18:10:04.322Z,101038.84
2023-03-16T18:13:31.283Z,101049.19
2023-03-16T18:16:37.321Z,101054.63
2023-03-16T18:19:38.342Z,101049.16
2023-03-16T18:22:38.251Z,101054.59
2023-03-16T18:25:50.324Z,101053.16
2023-03-16T18:28:50.286Z,101056.91
2023-03-16T18:31:50.306Z,101059.91
2023-03-16T18:34:50.278Z,101066.22
2023-03-16T18:37:50.322Z,101055.25
2023-03-16T18:40:50.291Z,101074.25
2023-03-16T18:43:50.274Z,101071.75
2023-03-16T18:46:51.335Z,101083.84
2023-03-16T18:49:54.261Z,101083.25
2023-03-16T18:52:54.329Z,101088.50
2023-03-16T18:55:57.228Z,101080.75
2023-03-16T18:58:57.295Z,101084.91
2023-03-16T19:01:58.412Z,101087.69
2023-03-16T19:04:58.298Z,101091.25
2023-03-16T19:07:59.277Z,101098.25
2023-03-16T19:11:03.278Z,101094.06
2023-03-16T19:14:03.455Z,101076.47
2023-03-16T19:17:03.269Z,101092.88
2023-03-16T19:20:03.284Z,101107.06
2023-03-16T19:23:04.256Z,101113.28
2023-03-16T19:26:05.299Z,101110.97
2023-03-16T19:29:05.298Z,101113.72
2023-03-16T19:32:11.280Z,101116.31
2023-03-16T19:35:12.270Z,101115.06
2023-03-16T19:38:12.310Z,101117.69
2023-03-16T19:41:13.295Z,101118.44
2023-03-16T19:44:33.282Z,101095.31
2023-03-16T19:47:44.307Z,101131.09
2023-03-16T19:50:44.274Z,101139.59
2023-03-16T19:53:44.275Z,101129.91
2023-03-16T19:56:44.270Z,101149.78
2023-03-16T19:59:46.318Z,101147.59
2023-03-16T20:02:49.267Z,101147.09
2023-03-16T20:05:49.305Z,101150.91
2023-03-16T20:08:49.312Z,101150.03
2023-03-16T20:11:49.259Z,101154.53
2023-03-16T20:14:49.326Z,101147.75
2023-03-16T20:17:50.313Z,101155.44
2023-03-16T20:20:50.275Z,101158.16
2023-03-16T20:23:50.291Z,101160.09
2023-03-16T20:26:50.308Z,101161.19
2023-03-16T20:29:50.320Z,101129.00
2023-03-16T20:32:50.300Z,101167.25
2023-03-16T20:35:50.277Z,101162.25
2023-03-16T20:38:50.266Z,101158.06
2023-03-16T20:41:50.253Z,101159.84
2023-03-16T20:44:50.306Z,101158.22
2023-03-16T20:47:50.267Z,101175.53
2023-03-16T20:50:50.287Z,101174.66
2023-03-16T20:53:50.266Z,101185.03
2023-03-16T20:56:50.278Z,101181.66
2023-03-16T20:59:50.261Z,101183.34
2023-03-16T21:02:50.312Z,101186.94
2023-03-16T21:05:50.257Z,101191.34
2023-03-16T21:08:50.313Z,101186.25
2023-03-16T21:11:52.245Z,101191.34
2023-03-16T21:14:52.250Z,101187.19
2023-03-16T21:17:52.255Z,101188.09
2023-03-16T21:20:52.242Z,101168.56
2023-03-16T21:23:52.294Z,101190.72
2023-03-16T21:26:54.230Z,101193.34
2023-03-16T21:29:47.293Z,101190.81
2023-03-16T21:32:28.562Z,101167.94
2023-03-16T21:35:20.326Z,101202.22
2023-03-16T21:38:06.222Z,101172.50
2023-03-16T21:41:06.297Z,101199.63
2023-03-16T21:44:06.264Z,101200.53
2023-03-16T21:47:06.289Z,101199.72
2023-03-16T21:50:06.293Z,101205.59
2023-03-16T21:53:06.272Z,101203.88
2023-03-16T21:56:06.299Z,101188.47
2023-03-16T21:59:00.258Z,101197.62
2023-03-16T22:01:50.973Z,101214.88
2023-03-16T22:04:45.258Z,101220.94
2023-03-16T22:07:25.472Z,101213.28
2023-03-16T22:10:21.281Z,101213.37
2023-03-16T22:13:02.199Z,101211.75
2023-03-16T22:16:03.255Z,101202.38
2023-03-16T22:19:05.238Z,101194.00
2023-03-16T22:22:05.290Z,101223.69
2023-03-16T22:25:05.214Z,101223.81
2023-03-16T22:28:05.279Z,101223.06
2023-03-16T22:31:05.247Z,101225.72
2023-03-16T22:34:05.295Z,101208.81
2023-03-16T22:37:05.263Z,101201.16
2023-03-16T22:40:05.267Z,101232.63
2023-03-16T22:43:05.225Z,101231.91
2023-03-16T22:46:05.278Z,101218.12
2023-03-16T22:49:06.221Z,101231.91
2023-03-16T22:52:08.279Z,101232.88
2023-03-16T22:55:08.295Z,101234.53
2023-03-16T22:58:21.253Z,101238.09
2023-03-16T23:01:35.299Z,101235.53
2023-03-16T23:04:40.355Z,101231.31
2023-03-16T23:07:40.267Z,101245.84
2023-03-16T23:10:40.243Z,101240.78
2023-03-16T23:13:40.272Z,101239.00
2023-03-16T23:16:41.297Z,101231.44
2023-03-16T23:19:46.304Z,101250.28
2023-03-16T23:22:47.287Z,101217.00
2023-03-16T23:25:48.313Z,101219.66
2023-03-16T23:28:48.309Z,101246.94
2023-03-16T23:31:48.259Z,101239.25
2023-03-16T23:34:48.297Z,101236.78
2023-03-16T23:37:48.251Z,101237.72
2023-03-16T23:40:50.266Z,101243.66
2023-03-16T23:43:50.280Z,101207.94
2023-03-16T23:46:50.224Z,101253.31
2023-03-16T23:49:52.284Z,101247.31
2023-03-16T23:52:52.274Z,101233.81
2023-03-16T23:55:53.244Z,101251.75
2023-03-16T23:58:53.266Z,101265.53
